KEGI

Duke Field Airport

Crestview, Florida, USA
METAR KEGI 260255Z 09004KT 10SM SCT100 19/13 A3010 RMK AO2A SLP193 T01860132 58001 $
Observed Flight Rules
Feb-26 @ 02:55 UTC (38 minutes ago) Visual Flight Rules
Wind Visibility Clouds
90° at 4 knots 10 miles
  • Scattered at 10,000' AGL
Temperatures Readings
Current 19°C / 66°F
Dewpoint 13°C / 55°F
Humidity 68%
Altimeter 30.1" Hg
Pressure 1019.3 hPa
Elevation 59
METAR KEGI 260255Z 09004KT 10SM SCT100 19/13 A3010 RMK AO2A SLP193 T01860132 58001 $
Observed Flight Rules
Feb-26 @ 02:55 UTC
(38 minutes ago)
VFR
Wind Visibility
90° at 4 knots 10 miles
Clouds
  • Scattered at 10,000' AGL
Temperature Dewpoint
19°C / 66°F 13°C / 55°F
Humidity Altimeter Pressure
68% 30.1" Hg 1019.3 hPa